sensor_id;sensor_type;location;lat;lon;timestamp;pressure;altitude;pressure_sealevel;temperature;humidity
27144;BME280;14672;50.250;8.312;2023-01-30T00:02:14;99326.59;;;5.17;59.61
27144;BME280;14672;50.250;8.312;2023-01-30T00:04:40;99327.34;;;5.25;59.47
27144;BME280;14672;50.250;8.312;2023-01-30T00:07:05;99319.31;;;5.23;59.49
27144;BME280;14672;50.250;8.312;2023-01-30T00:09:31;99323.00;;;5.13;60.21
27144;BME280;14672;50.250;8.312;2023-01-30T00:11:57;99302.81;;;5.18;59.76
27144;BME280;14672;50.250;8.312;2023-01-30T00:14:23;99297.16;;;5.21;59.71
27144;BME280;14672;50.250;8.312;2023-01-30T00:16:48;99274.97;;;5.31;59.91
27144;BME280;14672;50.250;8.312;2023-01-30T00:19:14;99264.94;;;5.26;60.43
27144;BME280;14672;50.250;8.312;2023-01-30T00:21:40;99259.31;;;5.26;60.71
27144;BME280;14672;50.250;8.312;2023-01-30T00:24:06;99244.47;;;5.22;60.74
27144;BME280;14672;50.250;8.312;2023-01-30T00:26:32;99236.47;;;5.17;61.14
27144;BME280;14672;50.250;8.312;2023-01-30T00:28:58;99245.31;;;5.15;61.24
27144;BME280;14672;50.250;8.312;2023-01-30T00:31:23;99252.09;;;5.25;61.03
27144;BME280;14672;50.250;8.312;2023-01-30T00:33:49;99244.19;;;5.09;61.08
27144;BME280;14672;50.250;8.312;2023-01-30T00:36:15;99249.31;;;5.18;61.14
27144;BME280;14672;50.250;8.312;2023-01-30T00:38:40;99236.81;;;5.22;61.22
27144;BME280;14672;50.250;8.312;2023-01-30T00:41:06;99240.41;;;5.27;60.99
27144;BME280;14672;50.250;8.312;2023-01-30T00:43:33;99242.38;;;5.30;60.81
27144;BME280;14672;50.250;8.312;2023-01-30T00:46:29;99247.63;;;5.31;60.99
27144;BME280;14672;50.250;8.312;2023-01-30T00:49:14;99244.75;;;5.35;61.10
27144;BME280;14672;50.250;8.312;2023-01-30T00:51:40;99236.75;;;5.33;61.13
27144;BME280;14672;50.250;8.312;2023-01-30T00:54:06;99229.50;;;5.32;61.47
27144;BME280;14672;50.250;8.312;2023-01-30T00:56:32;99229.06;;;5.37;61.00
27144;BME280;14672;50.250;8.312;2023-01-30T00:58:57;99243.19;;;5.30;60.97
27144;BME280;14672;50.250;8.312;2023-01-30T01:01:23;99235.91;;;5.36;61.05
27144;BME280;14672;50.250;8.312;2023-01-30T01:03:49;99215.34;;;5.39;61.11
27144;BME280;14672;50.250;8.312;2023-01-30T01:06:15;99223.75;;;5.46;60.75
27144;BME280;14672;50.250;8.312;2023-01-30T01:08:41;99208.00;;;5.52;60.65
27144;BME280;14672;50.250;8.312;2023-01-30T01:11:07;99200.38;;;5.46;61.22
27144;BME280;14672;50.250;8.312;2023-01-30T01:13:32;99181.91;;;5.45;61.04
27144;BME280;14672;50.250;8.312;2023-01-30T01:15:58;99188.38;;;5.38;61.28
27144;BME280;14672;50.250;8.312;2023-01-30T01:18:24;99189.13;;;5.49;61.25
27144;BME280;14672;50.250;8.312;2023-01-30T01:20:50;99185.97;;;5.40;61.72
27144;BME280;14672;50.250;8.312;2023-01-30T01:23:16;99198.31;;;5.53;61.26
27144;BME280;14672;50.250;8.312;2023-01-30T01:25:42;99189.00;;;5.60;61.23
27144;BME280;14672;50.250;8.312;2023-01-30T01:28:08;99205.09;;;5.59;61.76
27144;BME280;14672;50.250;8.312;2023-01-30T01:30:33;99203.09;;;5.60;61.42
27144;BME280;14672;50.250;8.312;2023-01-30T01:32:59;99186.88;;;5.71;61.02
27144;BME280;14672;50.250;8.312;2023-01-30T01:35:25;99184.38;;;5.39;62.02
27144;BME280;14672;50.250;8.312;2023-01-30T01:37:54;99182.72;;;5.45;62.21
27144;BME280;14672;50.250;8.312;2023-01-30T01:40:22;99168.03;;;5.64;61.56
27144;BME280;14672;50.250;8.312;2023-01-30T01:43:22;99166.78;;;5.65;62.01
27144;BME280;14672;50.250;8.312;2023-01-30T01:45:55;99147.84;;;5.66;61.73
27144;BME280;14672;50.250;8.312;2023-01-30T01:48:54;99155.63;;;5.55;62.11
27144;BME280;14672;50.250;8.312;2023-01-30T01:54:49;99153.50;;;5.66;61.79
27144;BME280;14672;50.250;8.312;2023-01-30T01:57:29;99149.47;;;5.67;61.62
27144;BME280;14672;50.250;8.312;2023-01-30T02:00:06;99140.22;;;5.66;62.31
27144;BME280;14672;50.250;8.312;2023-01-30T02:02:44;99127.63;;;5.75;61.64
27144;BME280;14672;50.250;8.312;2023-01-30T02:05:13;99128.81;;;5.77;61.60
27144;BME280;14672;50.250;8.312;2023-01-30T02:07:45;99117.63;;;5.70;61.87
27144;BME280;14672;50.250;8.312;2023-01-30T02:10:20;99118.00;;;5.72;62.16
27144;BME280;14672;50.250;8.312;2023-01-30T02:12:49;99131.22;;;5.79;62.09
27144;BME280;14672;50.250;8.312;2023-01-30T02:15:18;99130.84;;;5.77;62.38
27144;BME280;14672;50.250;8.312;2023-01-30T02:17:44;99138.06;;;5.78;61.90
27144;BME280;14672;50.250;8.312;2023-01-30T02:25:45;99115.94;;;5.76;62.45
27144;BME280;14672;50.250;8.312;2023-01-30T02:34:02;99113.44;;;5.82;61.74
27144;BME280;14672;50.250;8.312;2023-01-30T02:46:04;99130.66;;;5.94;62.12
27144;BME280;14672;50.250;8.312;2023-01-30T02:49:05;99119.72;;;6.00;61.78
27144;BME280;14672;50.250;8.312;2023-01-30T02:51:37;99129.84;;;5.94;61.83
27144;BME280;14672;50.250;8.312;2023-01-30T02:54:12;99130.56;;;6.01;61.60
27144;BME280;14672;50.250;8.312;2023-01-30T02:56:51;99120.06;;;6.02;61.92
27144;BME280;14672;50.250;8.312;2023-01-30T02:59:31;99115.59;;;6.08;61.23
27144;BME280;14672;50.250;8.312;2023-01-30T03:05:28;99144.19;;;6.06;61.58
27144;BME280;14672;50.250;8.312;2023-01-30T03:08:37;99132.50;;;6.08;61.50
27144;BME280;14672;50.250;8.312;2023-01-30T03:11:01;99103.84;;;6.09;61.55
27144;BME280;14672;50.250;8.312;2023-01-30T03:16:20;99096.69;;;6.05;61.91
27144;BME280;14672;50.250;8.312;2023-01-30T03:18:48;99083.50;;;5.95;62.53
27144;BME280;14672;50.250;8.312;2023-01-30T03:21:14;99082.25;;;5.99;62.06
27144;BME280;14672;50.250;8.312;2023-01-30T03:23:40;99067.13;;;5.83;62.78
27144;BME280;14672;50.250;8.312;2023-01-30T03:26:11;99061.81;;;5.92;61.94
27144;BME280;14672;50.250;8.312;2023-01-30T03:28:40;99047.09;;;5.77;62.79
27144;BME280;14672;50.250;8.312;2023-01-30T03:31:06;99047.31;;;5.90;62.48
27144;BME280;14672;50.250;8.312;2023-01-30T03:33:33;99041.97;;;5.99;62.22
27144;BME280;14672;50.250;8.312;2023-01-30T03:35:59;99042.72;;;6.03;62.14
27144;BME280;14672;50.250;8.312;2023-01-30T03:38:25;99051.47;;;6.12;61.69
27144;BME280;14672;50.250;8.312;2023-01-30T03:40:50;99057.09;;;6.12;62.00
27144;BME280;14672;50.250;8.312;2023-01-30T03:43:16;99052.28;;;6.12;62.01
27144;BME280;14672;50.250;8.312;2023-01-30T03:45:42;99051.47;;;6.12;61.92
27144;BME280;14672;50.250;8.312;2023-01-30T03:48:08;99049.75;;;6.18;62.02
27144;BME280;14672;50.250;8.312;2023-01-30T03:50:34;99056.13;;;6.22;61.65
27144;BME280;14672;50.250;8.312;2023-01-30T03:52:59;99046.03;;;6.25;61.39
27144;BME280;14672;50.250;8.312;2023-01-30T03:55:25;99045.66;;;5.96;62.75
27144;BME280;14672;50.250;8.312;2023-01-30T03:57:55;99041.69;;;6.20;62.57
27144;BME280;14672;50.250;8.312;2023-01-30T04:00:21;99038.84;;;6.20;62.33
27144;BME280;14672;50.250;8.312;2023-01-30T04:02:47;99029.91;;;6.25;62.13
27144;BME280;14672;50.250;8.312;2023-01-30T04:05:13;99050.38;;;6.29;62.07
27144;BME280;14672;50.250;8.312;2023-01-30T04:07:38;99047.94;;;6.31;62.00
27144;BME280;14672;50.250;8.312;2023-01-30T04:10:05;99040.88;;;6.20;62.20
27144;BME280;14672;50.250;8.312;2023-01-30T04:12:31;99024.38;;;6.18;62.58
27144;BME280;14672;50.250;8.312;2023-01-30T04:14:56;99028.31;;;6.24;62.65
27144;BME280;14672;50.250;8.312;2023-01-30T04:17:22;99030.69;;;6.26;62.56
27144;BME280;14672;50.250;8.312;2023-01-30T04:19:48;99022.91;;;6.33;62.24
27144;BME280;14672;50.250;8.312;2023-01-30T04:22:14;99017.78;;;6.28;62.72
27144;BME280;14672;50.250;8.312;2023-01-30T04:24:39;99017.28;;;6.33;62.55
27144;BME280;14672;50.250;8.312;2023-01-30T04:27:05;99004.78;;;6.34;62.40
27144;BME280;14672;50.250;8.312;2023-01-30T04:29:31;99006.31;;;6.39;62.29
27144;BME280;14672;50.250;8.312;2023-01-30T04:31:57;98993.75;;;6.43;62.10
27144;BME280;14672;50.250;8.312;2023-01-30T04:34:22;98982.06;;;6.41;62.39
27144;BME280;14672;50.250;8.312;2023-01-30T04:36:48;98988.09;;;6.43;62.08
27144;BME280;14672;50.250;8.312;2023-01-30T04:39:14;98983.19;;;6.47;62.16
27144;BME280;14672;50.250;8.312;2023-01-30T04:41:40;98978.34;;;6.48;61.94
27144;BME280;14672;50.250;8.312;2023-01-30T04:44:06;98971.13;;;6.47;62.45
27144;BME280;14672;50.250;8.312;2023-01-30T04:46:31;98970.84;;;6.38;62.88
27144;BME280;14672;50.250;8.312;2023-01-30T04:48:57;98984.81;;;6.48;62.19
27144;BME280;14672;50.250;8.312;2023-01-30T04:51:23;98974.25;;;6.52;62.05
27144;BME280;14672;50.250;8.312;2023-01-30T04:53:49;98966.94;;;6.55;61.90
27144;BME280;14672;50.250;8.312;2023-01-30T04:56:14;98960.97;;;6.49;62.00
27144;BME280;14672;50.250;8.312;2023-01-30T04:58:40;98962.09;;;6.55;61.99
27144;BME280;14672;50.250;8.312;2023-01-30T05:01:31;98964.84;;;6.36;63.25
27144;BME280;14672;50.250;8.312;2023-01-30T05:03:58;98967.75;;;6.55;62.33
27144;BME280;14672;50.250;8.312;2023-01-30T05:06:24;98944.28;;;6.58;62.06
27144;BME280;14672;50.250;8.312;2023-01-30T05:08:51;98953.25;;;6.53;62.25
27144;BME280;14672;50.250;8.312;2023-01-30T05:11:18;98950.81;;;6.55;62.04
27144;BME280;14672;50.250;8.312;2023-01-30T05:13:44;98946.81;;;6.53;62.12
27144;BME280;14672;50.250;8.312;2023-01-30T05:16:11;98945.97;;;6.56;62.08
27144;BME280;14672;50.250;8.312;2023-01-30T05:18:38;98958.81;;;6.57;62.37
27144;BME280;14672;50.250;8.312;2023-01-30T05:21:13;98941.47;;;6.58;62.76
27144;BME280;14672;50.250;8.312;2023-01-30T05:23:39;98935.47;;;6.56;62.61
27144;BME280;14672;50.250;8.312;2023-01-30T05:26:05;98929.75;;;6.60;62.02
27144;BME280;14672;50.250;8.312;2023-01-30T05:28:32;98928.97;;;6.36;63.69
27144;BME280;14672;50.250;8.312;2023-01-30T05:31:06;98924.19;;;6.56;62.68
27144;BME280;14672;50.250;8.312;2023-01-30T05:33:33;98930.19;;;6.58;62.68
27144;BME280;14672;50.250;8.312;2023-01-30T05:35:59;98917.59;;;6.63;62.58
27144;BME280;14672;50.250;8.312;2023-01-30T05:38:26;98913.13;;;6.66;62.60
27144;BME280;14672;50.250;8.312;2023-01-30T05:41:03;98911.34;;;6.75;62.52
27144;BME280;14672;50.250;8.312;2023-01-30T05:43:30;98895.25;;;6.72;62.80
27144;BME280;14672;50.250;8.312;2023-01-30T05:45:58;98897.22;;;6.75;63.21
27144;BME280;14672;50.250;8.312;2023-01-30T05:48:25;98873.75;;;6.78;62.78
27144;BME280;14672;50.250;8.312;2023-01-30T05:50:56;98880.34;;;6.72;63.51
27144;BME280;14672;50.250;8.312;2023-01-30T05:53:26;98896.41;;;6.75;63.38
27144;BME280;14672;50.250;8.312;2023-01-30T05:55:56;98886.66;;;6.79;63.15
27144;BME280;14672;50.250;8.312;2023-01-30T05:58:23;98895.13;;;6.79;63.34
27144;BME280;14672;50.250;8.312;2023-01-30T06:00:49;98886.66;;;6.79;63.42
27144;BME280;14672;50.250;8.312;2023-01-30T06:03:15;98891.50;;;6.79;63.16
27144;BME280;14672;50.250;8.312;2023-01-30T06:05:41;98884.19;;;6.81;63.06
27144;BME280;14672;50.250;8.312;2023-01-30T06:08:07;98892.94;;;6.87;63.14
27144;BME280;14672;50.250;8.312;2023-01-30T06:10:34;98889.91;;;6.78;63.12
27144;BME280;14672;50.250;8.312;2023-01-30T06:13:00;98882.81;;;6.89;62.51
27144;BME280;14672;50.250;8.312;2023-01-30T06:15:26;98902.94;;;6.91;62.97
27144;BME280;14672;50.250;8.312;2023-01-30T06:17:52;98891.16;;;6.96;62.85
27144;BME280;14672;50.250;8.312;2023-01-30T06:20:18;98890.91;;;6.68;63.66
27144;BME280;14672;50.250;8.312;2023-01-30T06:22:43;98899.09;;;6.82;62.92
27144;BME280;14672;50.250;8.312;2023-01-30T06:25:09;98899.25;;;6.75;63.53
27144;BME280;14672;50.250;8.312;2023-01-30T06:27:35;98895.47;;;6.81;63.05
27144;BME280;14672;50.250;8.312;2023-01-30T06:30:01;98904.25;;;6.87;63.28
27144;BME280;14672;50.250;8.312;2023-01-30T06:32:27;98903.88;;;6.85;63.06
27144;BME280;14672;50.250;8.312;2023-01-30T06:34:53;98882.38;;;6.91;63.05
27144;BME280;14672;50.250;8.312;2023-01-30T06:37:18;98899.75;;;6.89;63.18
27144;BME280;14672;50.250;8.312;2023-01-30T06:39:44;98898.03;;;6.95;62.95
27144;BME280;14672;50.250;8.312;2023-01-30T06:42:10;98912.81;;;7.03;63.04
27144;BME280;14672;50.250;8.312;2023-01-30T06:44:36;98903.69;;;6.95;63.31
27144;BME280;14672;50.250;8.312;2023-01-30T06:47:01;98910.06;;;6.99;63.09
27144;BME280;14672;50.250;8.312;2023-01-30T06:49:27;98915.25;;;7.01;63.17
27144;BME280;14672;50.250;8.312;2023-01-30T06:51:53;98909.97;;;7.03;62.88
27144;BME280;14672;50.250;8.312;2023-01-30T06:54:19;98916.94;;;6.98;63.20
27144;BME280;14672;50.250;8.312;2023-01-30T06:56:44;98908.03;;;7.00;62.65
27144;BME280;14672;50.250;8.312;2023-01-30T06:59:10;98925.06;;;6.96;63.45
27144;BME280;14672;50.250;8.312;2023-01-30T07:01:36;98926.63;;;6.97;63.39
27144;BME280;14672;50.250;8.312;2023-01-30T07:04:03;98928.00;;;7.09;62.74
27144;BME280;14672;50.250;8.312;2023-01-30T07:06:29;98920.06;;;7.04;63.37
27144;BME280;14672;50.250;8.312;2023-01-30T07:08:54;98939.91;;;7.00;63.72
27144;BME280;14672;50.250;8.312;2023-01-30T07:11:26;98943.81;;;7.06;63.36
27144;BME280;14672;50.250;8.312;2023-01-30T07:13:52;98956.25;;;7.09;63.18
27144;BME280;14672;50.250;8.312;2023-01-30T07:16:18;98942.44;;;7.15;63.28
27144;BME280;14672;50.250;8.312;2023-01-30T07:18:43;98939.69;;;7.11;63.63
27144;BME280;14672;50.250;8.312;2023-01-30T07:21:09;98931.56;;;7.13;63.78
27144;BME280;14672;50.250;8.312;2023-01-30T07:23:35;98939.09;;;7.20;63.63
27144;BME280;14672;50.250;8.312;2023-01-30T07:26:05;98932.66;;;7.19;63.51
27144;BME280;14672;50.250;8.312;2023-01-30T07:28:31;98931.06;;;7.18;63.52
27144;BME280;14672;50.250;8.312;2023-01-30T07:31:00;98926.19;;;7.19;63.59
27144;BME280;14672;50.250;8.312;2023-01-30T07:33:26;98928.66;;;7.17;63.59
27144;BME280;14672;50.250;8.312;2023-01-30T07:35:52;98935.41;;;7.03;64.55
27144;BME280;14672;50.250;8.312;2023-01-30T07:38:18;98950.31;;;7.03;64.26
27144;BME280;14672;50.250;8.312;2023-01-30T07:40:43;98961.41;;;7.14;63.66
27144;BME280;14672;50.250;8.312;2023-01-30T07:43:12;98938.44;;;7.12;63.34
27144;BME280;14672;50.250;8.312;2023-01-30T07:45:44;98932.06;;;7.08;64.08
27144;BME280;14672;50.250;8.312;2023-01-30T07:48:16;98946.41;;;7.17;63.65
27144;BME280;14672;50.250;8.312;2023-01-30T07:50:43;98923.81;;;7.17;63.76
27144;BME280;14672;50.250;8.312;2023-01-30T07:53:12;98918.03;;;7.04;64.51
27144;BME280;14672;50.250;8.312;2023-01-30T07:55:39;98921.34;;;6.99;64.63
27144;BME280;14672;50.250;8.312;2023-01-30T07:58:05;98919.03;;;7.14;64.88
27144;BME280;14672;50.250;8.312;2023-01-30T08:00:32;98904.25;;;7.26;64.02
27144;BME280;14672;50.250;8.312;2023-01-30T08:02:59;98897.00;;;7.05;65.30
27144;BME280;14672;50.250;8.312;2023-01-30T08:05:25;98895.53;;;7.17;64.58
27144;BME280;14672;50.250;8.312;2023-01-30T08:07:50;98900.41;;;7.17;64.88
27144;BME280;14672;50.250;8.312;2023-01-30T08:10:17;98896.34;;;7.18;64.95
27144;BME280;14672;50.250;8.312;2023-01-30T08:12:43;98891.56;;;7.15;64.60
27144;BME280;14672;50.250;8.312;2023-01-30T08:15:09;98920.25;;;6.93;65.58
27144;BME280;14672;50.250;8.312;2023-01-30T08:17:35;98900.47;;;7.13;65.53
27144;BME280;14672;50.250;8.312;2023-01-30T08:20:02;98885.63;;;7.09;65.97
27144;BME280;14672;50.250;8.312;2023-01-30T08:22:28;98881.44;;;7.17;65.49
27144;BME280;14672;50.250;8.312;2023-01-30T08:24:54;98878.75;;;7.10;66.17
27144;BME280;14672;50.250;8.312;2023-01-30T08:27:19;98907.81;;;7.11;66.13
27144;BME280;14672;50.250;8.312;2023-01-30T08:29:45;98913.03;;;6.92;66.52
27144;BME280;14672;50.250;8.312;2023-01-30T08:32:11;98893.97;;;7.16;66.14
27144;BME280;14672;50.250;8.312;2023-01-30T08:34:37;98919.19;;;7.27;65.55
27144;BME280;14672;50.250;8.312;2023-01-30T08:37:03;98903.19;;;7.20;65.81
27144;BME280;14672;50.250;8.312;2023-01-30T08:39:29;98896.16;;;7.28;65.52
27144;BME280;14672;50.250;8.312;2023-01-30T08:41:54;98900.13;;;7.31;65.51
27144;BME280;14672;50.250;8.312;2023-01-30T08:44:20;98890.75;;;7.34;65.37
27144;BME280;14672;50.250;8.312;2023-01-30T08:46:46;98894.81;;;7.13;65.61
27144;BME280;14672;50.250;8.312;2023-01-30T08:49:12;98904.19;;;7.10;66.19
27144;BME280;14672;50.250;8.312;2023-01-30T08:51:38;98889.47;;;6.99;66.38
27144;BME280;14672;50.250;8.312;2023-01-30T08:54:04;98900.63;;;7.06;66.11
27144;BME280;14672;50.250;8.312;2023-01-30T08:56:32;98889.25;;;7.29;66.08
27144;BME280;14672;50.250;8.312;2023-01-30T08:58:58;98887.38;;;7.03;66.43
27144;BME280;14672;50.250;8.312;2023-01-30T09:01:24;98886.16;;;7.04;66.40
27144;BME280;14672;50.250;8.312;2023-01-30T09:03:50;98874.31;;;7.29;65.86
27144;BME280;14672;50.250;8.312;2023-01-30T09:06:16;98875.13;;;7.29;65.76
27144;BME280;14672;50.250;8.312;2023-01-30T09:08:42;98893.44;;;7.21;66.00
27144;BME280;14672;50.250;8.312;2023-01-30T09:11:10;98885.63;;;7.29;65.62
27144;BME280;14672;50.250;8.312;2023-01-30T09:13:37;98887.06;;;7.37;65.35
27144;BME280;14672;50.250;8.312;2023-01-30T09:16:11;98874.03;;;7.23;65.67
27144;BME280;14672;50.250;8.312;2023-01-30T09:18:42;98871.06;;;7.30;65.59
27144;BME280;14672;50.250;8.312;2023-01-30T09:21:09;98886.41;;;7.29;65.54
27144;BME280;14672;50.250;8.312;2023-01-30T09:23:36;98877.50;;;7.31;65.69
27144;BME280;14672;50.250;8.312;2023-01-30T09:26:03;98880.97;;;7.38;65.44
27144;BME280;14672;50.250;8.312;2023-01-30T09:28:30;98880.84;;;7.06;66.47
27144;BME280;14672;50.250;8.312;2023-01-30T09:30:57;98887.44;;;7.39;66.03
27144;BME280;14672;50.250;8.312;2023-01-30T09:33:23;98885.41;;;7.39;65.66
27144;BME280;14672;50.250;8.312;2023-01-30T09:35:49;98890.41;;;7.32;65.81
27144;BME280;14672;50.250;8.312;2023-01-30T09:38:16;98905.53;;;7.41;65.40
27144;BME280;14672;50.250;8.312;2023-01-30T09:41:23;98911.19;;;7.41;65.69
27144;BME280;14672;50.250;8.312;2023-01-30T09:47:08;98940.25;;;7.42;65.76
27144;BME280;14672;50.250;8.312;2023-01-30T09:53:02;98901.69;;;7.51;66.03
27144;BME280;14672;50.250;8.312;2023-01-30T09:55:32;98907.38;;;7.32;66.02
27144;BME280;14672;50.250;8.312;2023-01-30T09:58:01;98897.78;;;7.45;65.62
27144;BME280;14672;50.250;8.312;2023-01-30T10:00:39;98891.78;;;7.43;65.27
27144;BME280;14672;50.250;8.312;2023-01-30T10:03:38;98896.53;;;7.46;65.19
27144;BME280;14672;50.250;8.312;2023-01-30T10:06:12;98902.34;;;7.39;65.18
27144;BME280;14672;50.250;8.312;2023-01-30T10:11:59;98898.63;;;7.62;65.31
27144;BME280;14672;50.250;8.312;2023-01-30T10:14:53;98891.34;;;7.61;65.39
27144;BME280;14672;50.250;8.312;2023-01-30T10:25:54;98900.38;;;7.56;66.39
27144;BME280;14672;50.250;8.312;2023-01-30T10:28:31;98894.31;;;7.90;65.69
27144;BME280;14672;50.250;8.312;2023-01-30T10:31:35;98875.94;;;8.14;65.12
27144;BME280;14672;50.250;8.312;2023-01-30T10:34:06;98881.63;;;8.30;64.87
27144;BME280;14672;50.250;8.312;2023-01-30T10:36:57;98889.38;;;8.10;64.31
27144;BME280;14672;50.250;8.312;2023-01-30T10:42:28;98868.00;;;8.09;63.98
27144;BME280;14672;50.250;8.312;2023-01-30T10:45:11;98878.78;;;7.98;64.66
27144;BME280;14672;50.250;8.312;2023-01-30T10:47:59;98877.97;;;7.81;64.87
27144;BME280;14672;50.250;8.312;2023-01-30T10:50:50;98865.34;;;8.18;64.42
27144;BME280;14672;50.250;8.312;2023-01-30T10:53:31;98879.22;;;8.13;64.00
27144;BME280;14672;50.250;8.312;2023-01-30T10:56:14;98878.97;;;8.23;63.64
27144;BME280;14672;50.250;8.312;2023-01-30T11:01:43;98875.50;;;8.48;62.94
27144;BME280;14672;50.250;8.312;2023-01-30T11:06:54;98889.72;;;8.61;61.53
27144;BME280;14672;50.250;8.312;2023-01-30T11:09:21;98886.22;;;8.40;61.81
27144;BME280;14672;50.250;8.312;2023-01-30T11:11:53;98877.53;;;8.64;61.01
27144;BME280;14672;50.250;8.312;2023-01-30T11:14:19;98894.72;;;8.85;61.29
27144;BME280;14672;50.250;8.312;2023-01-30T11:16:53;98872.75;;;8.89;60.94
27144;BME280;14672;50.250;8.312;2023-01-30T11:19:22;98884.34;;;8.95;61.37
27144;BME280;14672;50.250;8.312;2023-01-30T11:21:54;98889.47;;;8.71;61.60
27144;BME280;14672;50.250;8.312;2023-01-30T11:24:31;98878.81;;;8.75;61.38
27144;BME280;14672;50.250;8.312;2023-01-30T11:27:30;98874.78;;;9.18;60.88
27144;BME280;14672;50.250;8.312;2023-01-30T11:30:13;98878.38;;;9.47;60.24
27144;BME280;14672;50.250;8.312;2023-01-30T11:32:42;98872.78;;;9.43;60.03
27144;BME280;14672;50.250;8.312;2023-01-30T11:37:40;98887.38;;;10.21;58.20
27144;BME280;14672;50.250;8.312;2023-01-30T11:40:27;98873.75;;;9.91;58.41
27144;BME280;14672;50.250;8.312;2023-01-30T11:43:09;98879.06;;;9.51;59.06
27144;BME280;14672;50.250;8.312;2023-01-30T11:45:39;98879.25;;;9.31;59.22
27144;BME280;14672;50.250;8.312;2023-01-30T11:48:18;98865.94;;;9.28;59.37
27144;BME280;14672;50.250;8.312;2023-01-30T11:50:48;98866.78;;;9.41;58.92
27144;BME280;14672;50.250;8.312;2023-01-30T11:53:48;98880.25;;;9.37;59.26
27144;BME280;14672;50.250;8.312;2023-01-30T11:56:34;98873.88;;;9.21;60.09
27144;BME280;14672;50.250;8.312;2023-01-30T11:59:32;98890.25;;;9.01;60.15
27144;BME280;14672;50.250;8.312;2023-01-30T12:02:25;98877.03;;;9.10;60.31
27144;BME280;14672;50.250;8.312;2023-01-30T12:04:59;98871.63;;;8.87;60.70
27144;BME280;14672;50.250;8.312;2023-01-30T12:07:28;98874.72;;;8.76;61.07
27144;BME280;14672;50.250;8.312;2023-01-30T12:09:56;98868.03;;;8.99;60.54
27144;BME280;14672;50.250;8.312;2023-01-30T12:12:46;98856.31;;;9.26;60.63
27144;BME280;14672;50.250;8.312;2023-01-30T12:15:28;98862.13;;;9.60;59.60
27144;BME280;14672;50.250;8.312;2023-01-30T12:18:36;98869.16;;;9.56;59.18
27144;BME280;14672;50.250;8.312;2023-01-30T12:21:16;98849.22;;;9.84;58.71
27144;BME280;14672;50.250;8.312;2023-01-30T12:24:06;98840.03;;;9.80;58.41
27144;BME280;14672;50.250;8.312;2023-01-30T12:26:57;98849.22;;;9.97;58.10
27144;BME280;14672;50.250;8.312;2023-01-30T12:29:36;98845.56;;;9.84;58.10
27144;BME280;14672;50.250;8.312;2023-01-30T12:32:18;98847.63;;;9.96;58.25
27144;BME280;14672;50.250;8.312;2023-01-30T12:34:46;98846.59;;;9.90;58.44
27144;BME280;14672;50.250;8.312;2023-01-30T12:40:50;98852.16;;;9.81;58.49
27144;BME280;14672;50.250;8.312;2023-01-30T12:46:47;98854.09;;;9.84;58.08
27144;BME280;14672;50.250;8.312;2023-01-30T12:49:35;98865.13;;;9.82;58.81
27144;BME280;14672;50.250;8.312;2023-01-30T13:05:29;98865.78;;;9.61;58.00
27144;BME280;14672;50.250;8.312;2023-01-30T13:11:26;98875.41;;;9.38;58.61
27144;BME280;14672;50.250;8.312;2023-01-30T13:14:18;98877.00;;;9.39;58.76
27144;BME280;14672;50.250;8.312;2023-01-30T13:19:45;98881.53;;;9.49;58.51
27144;BME280;14672;50.250;8.312;2023-01-30T13:28:08;98891.56;;;9.25;59.59
27144;BME280;14672;50.250;8.312;2023-01-30T13:30:38;98885.03;;;9.40;59.00
27144;BME280;14672;50.250;8.312;2023-01-30T13:33:23;98895.91;;;9.29;59.15
27144;BME280;14672;50.250;8.312;2023-01-30T13:38:31;98898.97;;;9.48;59.01
27144;BME280;14672;50.250;8.312;2023-01-30T13:40:59;98895.47;;;9.43;59.26
27144;BME280;14672;50.250;8.312;2023-01-30T13:43:45;98894.56;;;9.47;59.12
27144;BME280;14672;50.250;8.312;2023-01-30T13:46:20;98902.09;;;9.66;58.87
27144;BME280;14672;50.250;8.312;2023-01-30T13:49:04;98900.72;;;9.58;58.34
27144;BME280;14672;50.250;8.312;2023-01-30T13:52:29;98904.50;;;9.67;57.82
27144;BME280;14672;50.250;8.312;2023-01-30T13:55:44;98909.94;;;9.87;57.49
27144;BME280;14672;50.250;8.312;2023-01-30T13:59:02;98902.69;;;9.86;56.92
27144;BME280;14672;50.250;8.312;2023-01-30T14:04:44;98920.81;;;9.76;56.61
27144;BME280;14672;50.250;8.312;2023-01-30T14:07:20;98914.78;;;9.61;56.75
27144;BME280;14672;50.250;8.312;2023-01-30T14:12:50;98924.69;;;10.58;54.61
27144;BME280;14672;50.250;8.312;2023-01-30T14:20:39;98906.44;;;11.67;51.85
27144;BME280;14672;50.250;8.312;2023-01-30T14:23:33;98907.84;;;11.85;50.45
27144;BME280;14672;50.250;8.312;2023-01-30T14:26:00;98922.31;;;11.99;50.05
27144;BME280;14672;50.250;8.312;2023-01-30T14:30:59;98941.59;;;11.52;49.12
27144;BME280;14672;50.250;8.312;2023-01-30T14:38:28;98957.53;;;11.06;50.57
27144;BME280;14672;50.250;8.312;2023-01-30T14:45:57;98960.53;;;10.77;50.29
27144;BME280;14672;50.250;8.312;2023-01-30T14:51:43;98974.34;;;10.66;52.06
27144;BME280;14672;50.250;8.312;2023-01-30T14:57:03;98978.97;;;10.72;52.49
27144;BME280;14672;50.250;8.312;2023-01-30T15:32:31;99023.09;;;9.85;51.99
27144;BME280;14672;50.250;8.312;2023-01-30T15:37:53;99024.97;;;9.63;52.80
27144;BME280;14672;50.250;8.312;2023-01-30T15:42:49;99029.03;;;9.62;53.21
27144;BME280;14672;50.250;8.312;2023-01-30T15:51:02;99043.91;;;9.66;53.33
27144;BME280;14672;50.250;8.312;2023-01-30T15:53:36;99043.56;;;9.64;53.32
27144;BME280;14672;50.250;8.312;2023-01-30T15:56:08;99046.69;;;9.53;53.32
27144;BME280;14672;50.250;8.312;2023-01-30T15:58:41;99047.81;;;9.43;53.83
27144;BME280;14672;50.250;8.312;2023-01-30T16:01:07;99065.34;;;9.38;54.19
27144;BME280;14672;50.250;8.312;2023-01-30T16:03:39;99062.81;;;9.27;53.67
27144;BME280;14672;50.250;8.312;2023-01-30T16:06:30;99073.97;;;9.34;53.65
27144;BME280;14672;50.250;8.312;2023-01-30T16:09:17;99086.72;;;9.42;53.89
27144;BME280;14672;50.250;8.312;2023-01-30T16:11:43;99080.16;;;9.29;53.80
27144;BME280;14672;50.250;8.312;2023-01-30T16:14:18;99089.75;;;9.35;54.05
27144;BME280;14672;50.250;8.312;2023-01-30T16:17:02;99103.38;;;9.24;54.47
27144;BME280;14672;50.250;8.312;2023-01-30T16:19:33;99106.91;;;9.28;54.25
27144;BME280;14672;50.250;8.312;2023-01-30T16:22:05;99107.63;;;9.16;54.55